sensor_id;sensor_type;location;lat;lon;timestamp;P1;durP1;ratioP1;P2;durP2;ratioP2
21721;SDS011;11023;48.274;7.794;2024-01-15T00:10:29;24.35;;;7.47;;
21721;SDS011;11023;48.274;7.794;2024-01-15T00:13:54;21.38;;;7.28;;
21721;SDS011;11023;48.274;7.794;2024-01-15T00:19:54;25.02;;;7.10;;
21721;SDS011;11023;48.274;7.794;2024-01-15T00:37:06;25.70;;;7.45;;
21721;SDS011;11023;48.274;7.794;2024-01-15T00:43:08;31.35;;;9.07;;
21721;SDS011;11023;48.274;7.794;2024-01-15T00:48:37;20.08;;;8.27;;
21721;SDS011;11023;48.274;7.794;2024-01-15T00:51:12;25.33;;;9.50;;
21721;SDS011;11023;48.274;7.794;2024-01-15T00:53:47;21.88;;;7.78;;
21721;SDS011;11023;48.274;7.794;2024-01-15T00:57:03;27.58;;;9.80;;
21721;SDS011;11023;48.274;7.794;2024-01-15T01:03:04;21.85;;;7.95;;
21721;SDS011;11023;48.274;7.794;2024-01-15T01:06:00;25.15;;;7.80;;
21721;SDS011;11023;48.274;7.794;2024-01-15T01:08:37;22.27;;;8.05;;
21721;SDS011;11023;48.274;7.794;2024-01-15T01:11:59;24.75;;;7.38;;
21721;SDS011;11023;48.274;7.794;2024-01-15T01:14:34;27.90;;;9.05;;
21721;SDS011;11023;48.274;7.794;2024-01-15T01:17:29;25.48;;;9.15;;
21721;SDS011;11023;48.274;7.794;2024-01-15T01:20:24;30.20;;;8.90;;
21721;SDS011;11023;48.274;7.794;2024-01-15T01:22:55;26.38;;;9.65;;
21721;SDS011;11023;48.274;7.794;2024-01-15T01:36:06;24.90;;;8.32;;
21721;SDS011;11023;48.274;7.794;2024-01-15T01:42:27;28.60;;;9.18;;
21721;SDS011;11023;48.274;7.794;2024-01-15T01:45:30;30.48;;;8.77;;
21721;SDS011;11023;48.274;7.794;2024-01-15T02:09:31;23.88;;;8.77;;
21721;SDS011;11023;48.274;7.794;2024-01-15T02:23:12;24.58;;;9.68;;
21721;SDS011;11023;48.274;7.794;2024-01-15T02:26:34;28.55;;;8.88;;
21721;SDS011;11023;48.274;7.794;2024-01-15T02:36:29;37.35;;;10.90;;
21721;SDS011;11023;48.274;7.794;2024-01-15T02:39:19;33.30;;;11.63;;
21721;SDS011;11023;48.274;7.794;2024-01-15T02:49:27;26.83;;;8.93;;
21721;SDS011;11023;48.274;7.794;2024-01-15T02:52:59;28.13;;;9.43;;
21721;SDS011;11023;48.274;7.794;2024-01-15T02:55:48;25.88;;;8.68;;
21721;SDS011;11023;48.274;7.794;2024-01-15T03:06:35;23.75;;;8.75;;
21721;SDS011;11023;48.274;7.794;2024-01-15T03:23:03;33.90;;;10.50;;
21721;SDS011;11023;48.274;7.794;2024-01-15T03:32:01;30.02;;;10.25;;
21721;SDS011;11023;48.274;7.794;2024-01-15T03:34:46;25.13;;;8.18;;
21721;SDS011;11023;48.274;7.794;2024-01-15T03:37:17;32.63;;;10.13;;
21721;SDS011;11023;48.274;7.794;2024-01-15T03:40:01;28.58;;;9.35;;
21721;SDS011;11023;48.274;7.794;2024-01-15T03:42:41;33.05;;;11.48;;
21721;SDS011;11023;48.274;7.794;2024-01-15T03:45:15;35.88;;;10.27;;
21721;SDS011;11023;48.274;7.794;2024-01-15T03:47:55;34.38;;;10.10;;
21721;SDS011;11023;48.274;7.794;2024-01-15T03:50:32;28.70;;;9.05;;
21721;SDS011;11023;48.274;7.794;2024-01-15T03:53:20;34.30;;;10.15;;
21721;SDS011;11023;48.274;7.794;2024-01-15T03:55:52;34.63;;;12.18;;
21721;SDS011;11023;48.274;7.794;2024-01-15T03:58:37;32.50;;;11.02;;
21721;SDS011;11023;48.274;7.794;2024-01-15T04:01:12;26.23;;;9.98;;
21721;SDS011;11023;48.274;7.794;2024-01-15T04:03:44;25.90;;;9.90;;
21721;SDS011;11023;48.274;7.794;2024-01-15T04:06:38;33.95;;;10.93;;
21721;SDS011;11023;48.274;7.794;2024-01-15T04:11:52;29.35;;;10.02;;
21721;SDS011;11023;48.274;7.794;2024-01-15T04:14:38;32.05;;;10.95;;
21721;SDS011;11023;48.274;7.794;2024-01-15T04:17:43;30.42;;;10.23;;
21721;SDS011;11023;48.274;7.794;2024-01-15T04:20:26;22.85;;;8.35;;
21721;SDS011;11023;48.274;7.794;2024-01-15T04:22:58;31.42;;;10.85;;
21721;SDS011;11023;48.274;7.794;2024-01-15T04:25:37;30.15;;;9.90;;
21721;SDS011;11023;48.274;7.794;2024-01-15T04:28:16;30.92;;;9.52;;
21721;SDS011;11023;48.274;7.794;2024-01-15T04:31:05;36.65;;;10.52;;
21721;SDS011;11023;48.274;7.794;2024-01-15T04:34:09;31.63;;;10.18;;
21721;SDS011;11023;48.274;7.794;2024-01-15T04:43:06;38.38;;;10.52;;
21721;SDS011;11023;48.274;7.794;2024-01-15T04:45:53;23.70;;;9.57;;
21721;SDS011;11023;48.274;7.794;2024-01-15T04:48:46;30.75;;;10.25;;
21721;SDS011;11023;48.274;7.794;2024-01-15T04:57:19;23.73;;;7.35;;
21721;SDS011;11023;48.274;7.794;2024-01-15T05:09:35;20.90;;;7.05;;
21721;SDS011;11023;48.274;7.794;2024-01-15T05:15:26;24.70;;;7.25;;
21721;SDS011;11023;48.274;7.794;2024-01-15T05:20:54;20.45;;;6.45;;
21721;SDS011;11023;48.274;7.794;2024-01-15T05:27:00;18.70;;;6.38;;
21721;SDS011;11023;48.274;7.794;2024-01-15T05:29:25;16.85;;;6.85;;
21721;SDS011;11023;48.274;7.794;2024-01-15T05:31:52;19.38;;;5.80;;
21721;SDS011;11023;48.274;7.794;2024-01-15T05:34:18;18.50;;;6.90;;
21721;SDS011;11023;48.274;7.794;2024-01-15T05:36:43;17.52;;;5.47;;
21721;SDS011;11023;48.274;7.794;2024-01-15T05:39:09;17.35;;;5.07;;
21721;SDS011;11023;48.274;7.794;2024-01-15T05:41:35;17.45;;;6.43;;
21721;SDS011;11023;48.274;7.794;2024-01-15T05:44:01;18.58;;;6.38;;
21721;SDS011;11023;48.274;7.794;2024-01-15T05:46:26;23.45;;;7.50;;
21721;SDS011;11023;48.274;7.794;2024-01-15T05:48:52;17.08;;;6.13;;
21721;SDS011;11023;48.274;7.794;2024-01-15T05:51:19;22.00;;;6.93;;
21721;SDS011;11023;48.274;7.794;2024-01-15T05:53:44;16.55;;;6.00;;
21721;SDS011;11023;48.274;7.794;2024-01-15T05:56:10;15.35;;;5.85;;
21721;SDS011;11023;48.274;7.794;2024-01-15T05:58:36;19.73;;;6.95;;
21721;SDS011;11023;48.274;7.794;2024-01-15T06:01:03;21.98;;;6.88;;
21721;SDS011;11023;48.274;7.794;2024-01-15T06:03:29;25.83;;;7.65;;
21721;SDS011;11023;48.274;7.794;2024-01-15T06:05:55;26.20;;;7.97;;
21721;SDS011;11023;48.274;7.794;2024-01-15T06:08:20;26.60;;;8.25;;
21721;SDS011;11023;48.274;7.794;2024-01-15T06:10:47;22.70;;;7.30;;
21721;SDS011;11023;48.274;7.794;2024-01-15T06:13:13;23.20;;;8.40;;
21721;SDS011;11023;48.274;7.794;2024-01-15T06:15:38;18.92;;;8.38;;
21721;SDS011;11023;48.274;7.794;2024-01-15T06:18:04;28.88;;;8.20;;
21721;SDS011;11023;48.274;7.794;2024-01-15T06:20:30;29.48;;;6.82;;
21721;SDS011;11023;48.274;7.794;2024-01-15T06:22:56;27.02;;;9.40;;
21721;SDS011;11023;48.274;7.794;2024-01-15T06:25:22;28.58;;;7.10;;
21721;SDS011;11023;48.274;7.794;2024-01-15T06:27:48;24.58;;;8.27;;
21721;SDS011;11023;48.274;7.794;2024-01-15T06:30:15;26.35;;;7.97;;
21721;SDS011;11023;48.274;7.794;2024-01-15T06:32:41;36.45;;;9.15;;
21721;SDS011;11023;48.274;7.794;2024-01-15T06:35:07;27.98;;;8.05;;
21721;SDS011;11023;48.274;7.794;2024-01-15T06:37:33;24.67;;;9.25;;
21721;SDS011;11023;48.274;7.794;2024-01-15T06:39:59;28.40;;;8.52;;
21721;SDS011;11023;48.274;7.794;2024-01-15T06:42:25;27.42;;;9.85;;
21721;SDS011;11023;48.274;7.794;2024-01-15T06:44:50;25.52;;;10.00;;
21721;SDS011;11023;48.274;7.794;2024-01-15T06:47:16;34.55;;;10.13;;
21721;SDS011;11023;48.274;7.794;2024-01-15T06:49:42;30.42;;;9.30;;
21721;SDS011;11023;48.274;7.794;2024-01-15T06:52:08;23.50;;;9.32;;
21721;SDS011;11023;48.274;7.794;2024-01-15T06:54:34;28.13;;;8.77;;
21721;SDS011;11023;48.274;7.794;2024-01-15T06:57:00;31.73;;;8.40;;
21721;SDS011;11023;48.274;7.794;2024-01-15T06:59:26;27.80;;;8.55;;
21721;SDS011;11023;48.274;7.794;2024-01-15T07:01:52;28.83;;;8.85;;
21721;SDS011;11023;48.274;7.794;2024-01-15T07:04:17;30.92;;;9.18;;
21721;SDS011;11023;48.274;7.794;2024-01-15T07:06:43;30.85;;;9.75;;
21721;SDS011;11023;48.274;7.794;2024-01-15T07:09:09;29.48;;;10.10;;
21721;SDS011;11023;48.274;7.794;2024-01-15T07:11:36;30.35;;;10.07;;
21721;SDS011;11023;48.274;7.794;2024-01-15T07:14:02;25.38;;;8.07;;
21721;SDS011;11023;48.274;7.794;2024-01-15T07:16:27;31.55;;;9.85;;
21721;SDS011;11023;48.274;7.794;2024-01-15T07:18:56;26.63;;;8.63;;
21721;SDS011;11023;48.274;7.794;2024-01-15T07:21:21;35.92;;;10.13;;
21721;SDS011;11023;48.274;7.794;2024-01-15T07:23:47;27.65;;;7.95;;
21721;SDS011;11023;48.274;7.794;2024-01-15T07:26:12;30.35;;;9.13;;
21721;SDS011;11023;48.274;7.794;2024-01-15T07:28:38;31.05;;;11.00;;
21721;SDS011;11023;48.274;7.794;2024-01-15T07:31:05;33.72;;;10.57;;
21721;SDS011;11023;48.274;7.794;2024-01-15T07:33:31;31.85;;;9.25;;
21721;SDS011;11023;48.274;7.794;2024-01-15T07:35:57;25.20;;;8.10;;
21721;SDS011;11023;48.274;7.794;2024-01-15T07:38:23;28.02;;;8.38;;
21721;SDS011;11023;48.274;7.794;2024-01-15T07:40:48;25.95;;;9.23;;
21721;SDS011;11023;48.274;7.794;2024-01-15T07:43:15;30.05;;;9.05;;
21721;SDS011;11023;48.274;7.794;2024-01-15T07:45:41;21.92;;;8.23;;
21721;SDS011;11023;48.274;7.794;2024-01-15T07:48:06;26.38;;;8.65;;
21721;SDS011;11023;48.274;7.794;2024-01-15T07:50:32;28.63;;;9.88;;
21721;SDS011;11023;48.274;7.794;2024-01-15T07:52:58;26.75;;;9.57;;
21721;SDS011;11023;48.274;7.794;2024-01-15T07:55:24;17.63;;;8.20;;
21721;SDS011;11023;48.274;7.794;2024-01-15T07:57:49;32.85;;;8.70;;
21721;SDS011;11023;48.274;7.794;2024-01-15T08:00:17;28.23;;;9.00;;
21721;SDS011;11023;48.274;7.794;2024-01-15T08:02:43;24.05;;;7.72;;
21721;SDS011;11023;48.274;7.794;2024-01-15T08:05:08;27.02;;;8.70;;
21721;SDS011;11023;48.274;7.794;2024-01-15T08:07:34;25.65;;;8.13;;
21721;SDS011;11023;48.274;7.794;2024-01-15T08:10:00;24.25;;;7.88;;
21721;SDS011;11023;48.274;7.794;2024-01-15T08:12:25;29.00;;;8.90;;
21721;SDS011;11023;48.274;7.794;2024-01-15T08:14:51;29.80;;;8.95;;
21721;SDS011;11023;48.274;7.794;2024-01-15T08:17:17;25.00;;;7.68;;
21721;SDS011;11023;48.274;7.794;2024-01-15T08:19:43;21.80;;;7.80;;
21721;SDS011;11023;48.274;7.794;2024-01-15T08:22:09;19.15;;;6.72;;
21721;SDS011;11023;48.274;7.794;2024-01-15T08:24:35;29.75;;;7.30;;
21721;SDS011;11023;48.274;7.794;2024-01-15T08:27:02;19.35;;;7.18;;
21721;SDS011;11023;48.274;7.794;2024-01-15T08:29:29;20.63;;;7.03;;
21721;SDS011;11023;48.274;7.794;2024-01-15T08:31:58;24.73;;;8.80;;
21721;SDS011;11023;48.274;7.794;2024-01-15T08:34:24;22.88;;;7.45;;
21721;SDS011;11023;48.274;7.794;2024-01-15T08:36:49;20.10;;;6.95;;
21721;SDS011;11023;48.274;7.794;2024-01-15T08:39:16;25.55;;;7.28;;
21721;SDS011;11023;48.274;7.794;2024-01-15T08:41:43;20.52;;;7.20;;
21721;SDS011;11023;48.274;7.794;2024-01-15T08:44:08;23.40;;;5.72;;
21721;SDS011;11023;48.274;7.794;2024-01-15T08:46:34;22.05;;;6.45;;
21721;SDS011;11023;48.274;7.794;2024-01-15T08:49:00;18.08;;;6.75;;
21721;SDS011;11023;48.274;7.794;2024-01-15T08:51:28;20.13;;;6.28;;
21721;SDS011;11023;48.274;7.794;2024-01-15T08:53:55;20.60;;;7.85;;
21721;SDS011;11023;48.274;7.794;2024-01-15T08:56:23;18.90;;;7.57;;
21721;SDS011;11023;48.274;7.794;2024-01-15T08:58:48;25.77;;;6.97;;
21721;SDS011;11023;48.274;7.794;2024-01-15T09:01:14;19.40;;;6.85;;
21721;SDS011;11023;48.274;7.794;2024-01-15T09:03:40;19.27;;;7.05;;
21721;SDS011;11023;48.274;7.794;2024-01-15T09:06:07;17.45;;;6.93;;
21721;SDS011;11023;48.274;7.794;2024-01-15T09:08:34;18.88;;;6.10;;
21721;SDS011;11023;48.274;7.794;2024-01-15T09:11:01;20.13;;;6.40;;
21721;SDS011;11023;48.274;7.794;2024-01-15T09:13:28;19.20;;;5.57;;
21721;SDS011;11023;48.274;7.794;2024-01-15T09:15:53;17.02;;;5.25;;
21721;SDS011;11023;48.274;7.794;2024-01-15T09:18:19;18.48;;;6.07;;
21721;SDS011;11023;48.274;7.794;2024-01-15T09:20:45;20.80;;;7.40;;
21721;SDS011;11023;48.274;7.794;2024-01-15T09:23:11;16.42;;;5.88;;
21721;SDS011;11023;48.274;7.794;2024-01-15T09:25:37;15.88;;;5.45;;
21721;SDS011;11023;48.274;7.794;2024-01-15T09:28:03;33.47;;;13.38;;
21721;SDS011;11023;48.274;7.794;2024-01-15T09:30:29;28.65;;;8.23;;
21721;SDS011;11023;48.274;7.794;2024-01-15T09:32:55;18.83;;;6.30;;
21721;SDS011;11023;48.274;7.794;2024-01-15T09:35:22;21.05;;;6.97;;
21721;SDS011;11023;48.274;7.794;2024-01-15T09:37:48;15.75;;;5.63;;
21721;SDS011;11023;48.274;7.794;2024-01-15T09:40:16;27.15;;;7.05;;
21721;SDS011;11023;48.274;7.794;2024-01-15T09:42:45;18.33;;;6.75;;
21721;SDS011;11023;48.274;7.794;2024-01-15T09:45:12;19.00;;;6.68;;
21721;SDS011;11023;48.274;7.794;2024-01-15T09:47:38;18.90;;;5.88;;
21721;SDS011;11023;48.274;7.794;2024-01-15T09:50:05;14.75;;;5.63;;
21721;SDS011;11023;48.274;7.794;2024-01-15T09:52:31;13.70;;;4.60;;
21721;SDS011;11023;48.274;7.794;2024-01-15T09:55:03;12.85;;;5.05;;
21721;SDS011;11023;48.274;7.794;2024-01-15T09:57:30;15.32;;;5.45;;
21721;SDS011;11023;48.274;7.794;2024-01-15T09:59:56;12.65;;;4.93;;
21721;SDS011;11023;48.274;7.794;2024-01-15T10:02:26;12.10;;;3.75;;
21721;SDS011;11023;48.274;7.794;2024-01-15T10:04:52;10.45;;;4.00;;
21721;SDS011;11023;48.274;7.794;2024-01-15T10:07:19;17.83;;;5.30;;
21721;SDS011;11023;48.274;7.794;2024-01-15T10:09:47;13.65;;;4.72;;
21721;SDS011;11023;48.274;7.794;2024-01-15T10:12:13;12.38;;;4.25;;
21721;SDS011;11023;48.274;7.794;2024-01-15T10:14:40;11.70;;;4.90;;
21721;SDS011;11023;48.274;7.794;2024-01-15T10:17:14;9.60;;;4.55;;
21721;SDS011;11023;48.274;7.794;2024-01-15T10:19:40;10.50;;;4.50;;
21721;SDS011;11023;48.274;7.794;2024-01-15T10:22:07;16.40;;;4.25;;
21721;SDS011;11023;48.274;7.794;2024-01-15T10:24:35;11.23;;;3.92;;
21721;SDS011;11023;48.274;7.794;2024-01-15T10:27:06;8.90;;;3.88;;
21721;SDS011;11023;48.274;7.794;2024-01-15T10:29:35;10.63;;;4.30;;
21721;SDS011;11023;48.274;7.794;2024-01-15T10:32:02;10.88;;;4.28;;
21721;SDS011;11023;48.274;7.794;2024-01-15T10:34:31;13.00;;;4.57;;
21721;SDS011;11023;48.274;7.794;2024-01-15T10:36:57;8.48;;;3.35;;
21721;SDS011;11023;48.274;7.794;2024-01-15T10:39:24;11.25;;;4.63;;
21721;SDS011;11023;48.274;7.794;2024-01-15T10:41:50;8.52;;;3.78;;
21721;SDS011;11023;48.274;7.794;2024-01-15T10:44:19;11.30;;;3.28;;
21721;SDS011;11023;48.274;7.794;2024-01-15T10:46:45;10.77;;;3.85;;
21721;SDS011;11023;48.274;7.794;2024-01-15T10:49:11;12.38;;;3.97;;
21721;SDS011;11023;48.274;7.794;2024-01-15T10:51:37;11.98;;;4.00;;
21721;SDS011;11023;48.274;7.794;2024-01-15T10:54:04;7.30;;;3.55;;
21721;SDS011;11023;48.274;7.794;2024-01-15T10:56:31;11.23;;;3.85;;
21721;SDS011;11023;48.274;7.794;2024-01-15T10:59:00;8.82;;;3.35;;
21721;SDS011;11023;48.274;7.794;2024-01-15T11:01:27;6.60;;;3.38;;
21721;SDS011;11023;48.274;7.794;2024-01-15T11:03:55;9.80;;;3.28;;
21721;SDS011;11023;48.274;7.794;2024-01-15T11:06:23;10.80;;;4.43;;
21721;SDS011;11023;48.274;7.794;2024-01-15T11:08:49;10.15;;;4.32;;
21721;SDS011;11023;48.274;7.794;2024-01-15T11:11:17;8.95;;;4.25;;
21721;SDS011;11023;48.274;7.794;2024-01-15T11:13:43;9.50;;;4.07;;
21721;SDS011;11023;48.274;7.794;2024-01-15T11:16:13;11.45;;;4.53;;
21721;SDS011;11023;48.274;7.794;2024-01-15T11:18:41;13.07;;;4.72;;
21721;SDS011;11023;48.274;7.794;2024-01-15T11:23:52;10.50;;;3.92;;
21721;SDS011;11023;48.274;7.794;2024-01-15T11:29:10;7.35;;;3.30;;
21721;SDS011;11023;48.274;7.794;2024-01-15T11:34:21;12.88;;;5.30;;
21721;SDS011;11023;48.274;7.794;2024-01-15T11:37:08;12.15;;;4.88;;
21721;SDS011;11023;48.274;7.794;2024-01-15T11:39:41;15.40;;;4.13;;
21721;SDS011;11023;48.274;7.794;2024-01-15T11:42:08;8.48;;;3.50;;
21721;SDS011;11023;48.274;7.794;2024-01-15T11:44:36;12.05;;;4.30;;
21721;SDS011;11023;48.274;7.794;2024-01-15T11:47:04;8.48;;;3.17;;
21721;SDS011;11023;48.274;7.794;2024-01-15T11:52:23;5.30;;;2.58;;
21721;SDS011;11023;48.274;7.794;2024-01-15T11:55:35;7.70;;;2.88;;
21721;SDS011;11023;48.274;7.794;2024-01-15T11:58:09;6.95;;;3.25;;
21721;SDS011;11023;48.274;7.794;2024-01-15T12:00:39;6.45;;;2.17;;
21721;SDS011;11023;48.274;7.794;2024-01-15T12:03:06;7.68;;;2.20;;
21721;SDS011;11023;48.274;7.794;2024-01-15T12:05:32;8.23;;;2.95;;
21721;SDS011;11023;48.274;7.794;2024-01-15T12:07:58;9.75;;;3.20;;
21721;SDS011;11023;48.274;7.794;2024-01-15T12:10:23;6.85;;;3.00;;
21721;SDS011;11023;48.274;7.794;2024-01-15T12:15:39;6.55;;;2.90;;
21721;SDS011;11023;48.274;7.794;2024-01-15T12:18:09;6.18;;;2.95;;
21721;SDS011;11023;48.274;7.794;2024-01-15T12:20:36;6.10;;;3.22;;
21721;SDS011;11023;48.274;7.794;2024-01-15T12:23:02;6.43;;;2.97;;
21721;SDS011;11023;48.274;7.794;2024-01-15T12:25:28;7.43;;;3.08;;
21721;SDS011;11023;48.274;7.794;2024-01-15T12:27:59;6.10;;;2.35;;
21721;SDS011;11023;48.274;7.794;2024-01-15T12:30:29;7.22;;;2.40;;
21721;SDS011;11023;48.274;7.794;2024-01-15T12:32:58;5.88;;;2.13;;
21721;SDS011;11023;48.274;7.794;2024-01-15T12:35:35;6.00;;;2.45;;
21721;SDS011;11023;48.274;7.794;2024-01-15T12:38:19;4.50;;;2.03;;
21721;SDS011;11023;48.274;7.794;2024-01-15T12:41:05;5.72;;;2.55;;
21721;SDS011;11023;48.274;7.794;2024-01-15T12:43:40;5.25;;;1.70;;
21721;SDS011;11023;48.274;7.794;2024-01-15T12:52:28;2.13;;;1.25;;
21721;SDS011;11023;48.274;7.794;2024-01-15T13:00:50;3.22;;;1.58;;
21721;SDS011;11023;48.274;7.794;2024-01-15T13:07:25;3.47;;;1.90;;
21721;SDS011;11023;48.274;7.794;2024-01-15T13:09:54;4.50;;;1.80;;
21721;SDS011;11023;48.274;7.794;2024-01-15T13:12:25;4.35;;;1.75;;
21721;SDS011;11023;48.274;7.794;2024-01-15T13:15:11;4.45;;;1.60;;
21721;SDS011;11023;48.274;7.794;2024-01-15T13:17:49;7.90;;;1.33;;
21721;SDS011;11023;48.274;7.794;2024-01-15T13:21:03;3.25;;;1.30;;
21721;SDS011;11023;48.274;7.794;2024-01-15T13:23:32;3.20;;;1.50;;
21721;SDS011;11023;48.274;7.794;2024-01-15T13:36:24;3.72;;;1.77;;
21721;SDS011;11023;48.274;7.794;2024-01-15T13:48:14;2.00;;;1.30;;
21721;SDS011;11023;48.274;7.794;2024-01-15T13:51:28;2.63;;;1.20;;
21721;SDS011;11023;48.274;7.794;2024-01-15T13:54:39;3.38;;;2.10;;
21721;SDS011;11023;48.274;7.794;2024-01-15T13:57:23;5.97;;;1.85;;
21721;SDS011;11023;48.274;7.794;2024-01-15T14:00:00;3.60;;;1.85;;
21721;SDS011;11023;48.274;7.794;2024-01-15T14:02:50;6.63;;;2.50;;
21721;SDS011;11023;48.274;7.794;2024-01-15T14:05:34;5.75;;;1.95;;
21721;SDS011;11023;48.274;7.794;2024-01-15T14:11:02;3.22;;;1.73;;
21721;SDS011;11023;48.274;7.794;2024-01-15T14:20:36;5.35;;;1.92;;
21721;SDS011;11023;48.274;7.794;2024-01-15T14:23:45;3.42;;;1.52;;
21721;SDS011;11023;48.274;7.794;2024-01-15T14:26:25;2.92;;;1.55;;
21721;SDS011;11023;48.274;7.794;2024-01-15T14:32:24;4.90;;;2.05;;
21721;SDS011;11023;48.274;7.794;2024-01-15T14:35:03;3.75;;;1.77;;
21721;SDS011;11023;48.274;7.794;2024-01-15T14:37:37;3.40;;;1.55;;
21721;SDS011;11023;48.274;7.794;2024-01-15T14:40:16;2.58;;;1.80;;
21721;SDS011;11023;48.274;7.794;2024-01-15T14:42:47;4.60;;;2.38;;
21721;SDS011;11023;48.274;7.794;2024-01-15T14:45:16;4.93;;;2.15;;
21721;SDS011;11023;48.274;7.794;2024-01-15T14:47:42;3.92;;;1.83;;
21721;SDS011;11023;48.274;7.794;2024-01-15T14:50:16;4.68;;;1.77;;
21721;SDS011;11023;48.274;7.794;2024-01-15T14:52:44;3.63;;;1.85;;
21721;SDS011;11023;48.274;7.794;2024-01-15T14:55:11;5.53;;;2.20;;
21721;SDS011;11023;48.274;7.794;2024-01-15T14:57:52;5.25;;;1.77;;
21721;SDS011;11023;48.274;7.794;2024-01-15T15:00:18;4.85;;;1.95;;
21721;SDS011;11023;48.274;7.794;2024-01-15T15:02:46;4.07;;;1.98;;
21721;SDS011;11023;48.274;7.794;2024-01-15T15:05:20;3.30;;;1.65;;
21721;SDS011;11023;48.274;7.794;2024-01-15T15:08:01;4.10;;;2.05;;
21721;SDS011;11023;48.274;7.794;2024-01-15T15:10:48;6.35;;;2.40;;
21721;SDS011;11023;48.274;7.794;2024-01-15T15:13:34;2.63;;;1.60;;
21721;SDS011;11023;48.274;7.794;2024-01-15T15:16:08;4.28;;;1.67;;
21721;SDS011;11023;48.274;7.794;2024-01-15T15:18:51;4.72;;;2.33;;
21721;SDS011;11023;48.274;7.794;2024-01-15T15:21:35;6.82;;;1.90;;
21721;SDS011;11023;48.274;7.794;2024-01-15T15:28:33;6.93;;;2.58;;
21721;SDS011;11023;48.274;7.794;2024-01-15T15:31:22;3.95;;;1.90;;
21721;SDS011;11023;48.274;7.794;2024-01-15T15:34:01;5.43;;;1.67;;
21721;SDS011;11023;48.274;7.794;2024-01-15T15:36:40;4.13;;;1.70;;
21721;SDS011;11023;48.274;7.794;2024-01-15T15:39:14;3.97;;;1.70;;
21721;SDS011;11023;48.274;7.794;2024-01-15T15:41:45;3.28;;;1.80;;
21721;SDS011;11023;48.274;7.794;2024-01-15T15:44:25;3.50;;;1.83;;
21721;SDS011;11023;48.274;7.794;2024-01-15T15:47:12;3.42;;;2.03;;
21721;SDS011;11023;48.274;7.794;2024-01-15T15:52:32;6.82;;;2.85;;
21721;SDS011;11023;48.274;7.794;2024-01-15T15:55:15;6.25;;;2.45;;
21721;SDS011;11023;48.274;7.794;2024-01-15T16:07:41;3.65;;;1.40;;
21721;SDS011;11023;48.274;7.794;2024-01-15T16:13:24;5.38;;;2.55;;
21721;SDS011;11023;48.274;7.794;2024-01-15T16:19:34;5.00;;;2.05;;
21721;SDS011;11023;48.274;7.794;2024-01-15T16:29:00;4.10;;;1.88;;
21721;SDS011;11023;48.274;7.794;2024-01-15T16:31:36;4.65;;;1.90;;
21721;SDS011;11023;48.274;7.794;2024-01-15T16:34:27;5.30;;;2.22;;
21721;SDS011;11023;48.274;7.794;2024-01-15T16:36:55;5.15;;;2.42;;
21721;SDS011;11023;48.274;7.794;2024-01-15T16:39:27;7.15;;;2.58;;
21721;SDS011;11023;48.274;7.794;2024-01-15T16:42:02;2.88;;;1.60;;
21721;SDS011;11023;48.274;7.794;2024-01-15T16:44:36;3.95;;;2.25;;
21721;SDS011;11023;48.274;7.794;2024-01-15T16:47:08;4.63;;;2.20;;
21721;SDS011;11023;48.274;7.794;2024-01-15T16:49:42;7.70;;;1.75;;
21721;SDS011;11023;48.274;7.794;2024-01-15T16:52:14;5.38;;;1.92;;
21721;SDS011;11023;48.274;7.794;2024-01-15T16:54:40;4.80;;;2.35;;
21721;SDS011;11023;48.274;7.794;2024-01-15T16:57:06;3.95;;;1.63;;
21721;SDS011;11023;48.274;7.794;2024-01-15T17:02:14;4.95;;;1.67;;
21721;SDS011;11023;48.274;7.794;2024-01-15T17:04:50;4.15;;;1.73;;
21721;SDS011;11023;48.274;7.794;2024-01-15T17:07:18;4.80;;;1.33;;
21721;SDS011;11023;48.274;7.794;2024-01-15T17:09:44;4.53;;;1.50;;
21721;SDS011;11023;48.274;7.794;2024-01-15T17:12:10;4.95;;;1.58;;
21721;SDS011;11023;48.274;7.794;2024-01-15T17:14:36;5.65;;;1.85;;
21721;SDS011;11023;48.274;7.794;2024-01-15T17:17:02;3.47;;;1.58;;
21721;SDS011;11023;48.274;7.794;2024-01-15T17:19:28;4.60;;;2.08;;
21721;SDS011;11023;48.274;7.794;2024-01-15T17:21:59;2.80;;;1.20;;
21721;SDS011;11023;48.274;7.794;2024-01-15T17:24:28;2.30;;;1.15;;
21721;SDS011;11023;48.274;7.794;2024-01-15T17:26:57;6.05;;;2.25;;
21721;SDS011;11023;48.274;7.794;2024-01-15T17:29:25;3.65;;;1.58;;
21721;SDS011;11023;48.274;7.794;2024-01-15T17:31:51;5.32;;;1.38;;
21721;SDS011;11023;48.274;7.794;2024-01-15T17:34:17;5.20;;;1.92;;
21721;SDS011;11023;48.274;7.794;2024-01-15T17:36:50;3.25;;;1.33;;
21721;SDS011;11023;48.274;7.794;2024-01-15T17:39:16;2.47;;;1.40;;
21721;SDS011;11023;48.274;7.794;2024-01-15T17:41:45;4.22;;;1.63;;
21721;SDS011;11023;48.274;7.794;2024-01-15T17:44:55;4.57;;;1.48;;
21721;SDS011;11023;48.274;7.794;2024-01-15T17:47:24;5.45;;;2.00;;
21721;SDS011;11023;48.274;7.794;2024-01-15T17:49:53;3.67;;;1.65;;
21721;SDS011;11023;48.274;7.794;2024-01-15T17:52:19;4.63;;;2.17;;
21721;SDS011;11023;48.274;7.794;2024-01-15T17:54:50;6.40;;;1.85;;
21721;SDS011;11023;48.274;7.794;2024-01-15T17:57:19;3.05;;;1.20;;
21721;SDS011;11023;48.274;7.794;2024-01-15T17:59:45;3.75;;;1.80;;
21721;SDS011;11023;48.274;7.794;2024-01-15T18:02:11;1.77;;;1.17;;
21721;SDS011;11023;48.274;7.794;2024-01-15T18:04:36;6.47;;;1.85;;
21721;SDS011;11023;48.274;7.794;2024-01-15T18:07:02;5.65;;;1.73;;
21721;SDS011;11023;48.274;7.794;2024-01-15T18:09:28;7.07;;;1.48;;
21721;SDS011;11023;48.274;7.794;2024-01-15T18:11:54;4.22;;;1.80;;
21721;SDS011;11023;48.274;7.794;2024-01-15T18:14:23;5.05;;;1.63;;
21721;SDS011;11023;48.274;7.794;2024-01-15T18:16:49;7.55;;;2.30;;
21721;SDS011;11023;48.274;7.794;2024-01-15T18:19:16;3.53;;;1.35;;
21721;SDS011;11023;48.274;7.794;2024-01-15T18:21:49;3.63;;;1.80;;
21721;SDS011;11023;48.274;7.794;2024-01-15T18:24:15;3.35;;;1.70;;
21721;SDS011;11023;48.274;7.794;2024-01-15T18:26:43;4.60;;;2.17;;
21721;SDS011;11023;48.274;7.794;2024-01-15T18:29:12;6.07;;;2.47;;
21721;SDS011;11023;48.274;7.794;2024-01-15T18:31:37;5.63;;;1.80;;
21721;SDS011;11023;48.274;7.794;2024-01-15T18:34:03;4.97;;;1.63;;
21721;SDS011;11023;48.274;7.794;2024-01-15T18:36:29;5.20;;;2.10;;
21721;SDS011;11023;48.274;7.794;2024-01-15T18:38:54;5.80;;;2.05;;
21721;SDS011;11023;48.274;7.794;2024-01-15T18:41:22;5.45;;;2.53;;
21721;SDS011;11023;48.274;7.794;2024-01-15T18:43:49;3.33;;;1.80;;
21721;SDS011;11023;48.274;7.794;2024-01-15T18:46:17;4.55;;;1.98;;
21721;SDS011;11023;48.274;7.794;2024-01-15T18:48:43;7.00;;;2.50;;
21721;SDS011;11023;48.274;7.794;2024-01-15T18:51:18;7.70;;;1.75;;
21721;SDS011;11023;48.274;7.794;2024-01-15T18:53:50;7.00;;;1.83;;
21721;SDS011;11023;48.274;7.794;2024-01-15T18:56:16;4.93;;;1.77;;
21721;SDS011;11023;48.274;7.794;2024-01-15T18:58:47;4.40;;;2.03;;
21721;SDS011;11023;48.274;7.794;2024-01-15T19:01:13;5.20;;;2.10;;
21721;SDS011;11023;48.274;7.794;2024-01-15T19:03:50;6.25;;;2.50;;
21721;SDS011;11023;48.274;7.794;2024-01-15T19:06:15;4.38;;;2.20;;
21721;SDS011;11023;48.274;7.794;2024-01-15T19:08:41;7.10;;;3.40;;
21721;SDS011;11023;48.274;7.794;2024-01-15T19:11:07;5.68;;;1.90;;
21721;SDS011;11023;48.274;7.794;2024-01-15T19:13:34;5.18;;;2.45;;
21721;SDS011;11023;48.274;7.794;2024-01-15T19:16:02;6.18;;;2.90;;
21721;SDS011;11023;48.274;7.794;2024-01-15T19:18:32;5.80;;;2.95;;
21721;SDS011;11023;48.274;7.794;2024-01-15T19:20:58;5.00;;;2.70;;
21721;SDS011;11023;48.274;7.794;2024-01-15T19:23:25;4.85;;;2.65;;
21721;SDS011;11023;48.274;7.794;2024-01-15T19:25:54;7.15;;;3.25;;